This demonstration page uses our WeatherBlox Daily Observations layout. Learn more.

Left ArrowRight Arrow

41.55636, -103.73856

Hourly Observations for January 13, 2021

Temp ( °F °C ) Dew Point ( °F °C ) Humidity (%) Winds ( mph kmh ) Pressure ( in mb ) Visibility ( mi km ) Precip ( " mm )
12:58 am 00:58 Mostly Clear 44 6.8 12 -11 27 27 SW 6 9 29.94 1014 10 16.0934 0 0
1:58 am 01:58 Mostly Clear 42 5.6 13 -10.6 30 30 SW 3 6 29.95 1014 10 16.0934 0 0
2:58 am 02:58 Mostly Clear 42 5.7 13 -10.4 31 31 W 7 11 29.95 1014 10 16.0934 0 0
3:58 am 03:58 Clear 43 6 13 -10.8 29 29 W 15 24 29.94 1014 10 16.0934 0 0
4:58 am 04:58 Clear 44 6.6 15 -9.7 30 30 WNW 15 24 29.95 1014 10 16.0934 0 0
5:58 am 05:58 Clear 42 5.7 20 -6.5 41 41 WNW 16 26 29.97 1015 10 16.0934 0 0
6:58 am 06:58 Clear 44 6.8 22 -5.6 41 41 WNW 18 30 29.98 1015 10 16.0934 0 0
7:58 am 07:58 Sunny 45 7.2 25 -4.1 45 45 WNW 22 35 29.93 1014 10 16.0934 0 0
8:58 am 08:58 Sunny 49 9.4 24 -4.4 38 38 NW 22 35 29.93 1014 10 16.0934 0 0
9:59 am 09:59 Sunny 53 11.4 24 -4.4 33 33 NW 21 33 29.91 1013 10 16.0934 0 0
2:56 pm 14:56 Mostly Cloudy 56 13.4 26 -3.6 31 31 WNW 29 46 29.71 1006 10 16.0934 0 0
3:56 pm 15:56 Mostly Cloudy 56 13.1 27 -2.9 33 33 WNW 35 56 29.69 1005 10 16.0934 0 0
4:56 pm 16:56 Mostly Cloudy 56 13.2 25 -3.7 31 31 WNW 30 48 29.7 1006 10 16.0934 0 0
5:56 pm 17:56 Clear 54 12.4 24 -4.3 31 31 W 38 61 29.71 1006 10 16.0934 0 0
6:58 pm 18:58 Clear 52 11.3 25 -4 34 34 W 29 46 29.71 1006 10 16.0934 0 0
7:58 pm 19:58 Clear 52 11 24 -4.7 33 33 WNW 26 43 29.7 1006 10 16.0934 0 0
8:58 pm 20:58 Windy with Snow Showers Likely 33 0.6 30 -1.2 88 88 N 30 48 29.89 1012 4 6.43736 0 0
9:58 pm 21:58 Cloudy with Light Snow Showers 32 0 30 -1 93 93 WNW 12 19 29.92 1013 10 16.0934 0 0
10:58 pm 22:58 Mostly Cloudy 31 -0.3 29 -1.7 90 90 WNW 14 22 29.93 1014 10 16.0934 0 0
11:58 pm 23:58 Mostly Cloudy with Light Snow Showers 32 -0.1 24 -4.2 74 74 NNW 18 30 29.95 1014 10 16.0934 0 0

Powered by AerisWeather